Terminal Aerodrome Forecast
Issued by NWS Binghamton, NY

Home | Current Version | Previous Version | Text Only | Print | Product List | Glossary On
Versions: 1 2 3 4 5 6 7 8 9 10 11 12 13 14 15 16 17 18 19 20
000
FTUS41 KBGM 220500
TAFBGM
TAF
KBGM 220523Z 2206/2306 02007KT P6SM OVC006
      TEMPO 2206/2210 5SM -SHRA BR SCT006 OVC012
     FM221200 36010KT P6SM SCT006 OVC015
      TEMPO 2212/2216 BKN006 OVC015
     FM230000 34012KT 5SM -SHRA BR BKN006 OVC012=

USA.gov is the U.S. government's official web portal to all federal, state and local government web resources and services.